Overview Statistics Trail Chart Weather Telemetry Raw packets
 

This is the latest recevied weather packets stored in our database for station/object KI4NG. If no packets are shown the sender has not sent any weather packets the latest 10 day(s).

<< 69 70 71 72 73 74 75 >>
Time Temp. Humidity Pressure Rain* Wind** Luminosity Snow
1788130623 29.44° C 68% 1021.3 hPa 0 mm - 74 W/m² -
1788130318 29.44° C 65% 1021.5 hPa 0 mm - 68 W/m² -
1788130016 29.44° C 65% 1021.2 hPa 0 mm - 74 W/m² -
1788129713 29.44° C 66% 1021.3 hPa 0 mm - 140 W/m² -
1788129410 30° C 64% 1021 hPa 0 mm - 171 W/m² -
1788129110 30.56° C 58% 1021.1 hPa 0 mm - 189 W/m² -
1788128804 31.11° C 60% 1021.2 hPa 0 mm - 166 W/m² -
1788128500 31.67° C 56% 1021.3 hPa 0 mm - 191 W/m² -
1788128196 31.11° C 57% 1021.3 hPa 0 mm - 176 W/m² -
1788127892 30° C 60% 1021.3 hPa 0 mm - 218 W/m² -
1788127587 30.56° C 58% 1021.1 hPa 0 mm - 250 W/m² -
1788127286 31.67° C 60% 1021.3 hPa 0 mm - 232 W/m² -
1788126986 31.11° C 56% 1021.2 hPa 0 mm - 279 W/m² -
1788126679 30.56° C 58% 1021.2 hPa 0 mm - 287 W/m² -
1788126374 31.11° C 56% 1021.5 hPa 0 mm - 321 W/m² -
1788126064 31.11° C 58% 1021.4 hPa 0 mm - 336 W/m² -
1788125763 31.67° C 57% 1021.4 hPa 0 mm - 374 W/m² -
1788125459 31.67° C 60% 1021.4 hPa 0 mm - 406 W/m² -
1788125154 30.56° C 61% 1021.4 hPa 0 mm - 433 W/m² -
1788124849 30° C 60% 1021.4 hPa 0 mm - 473 W/m² -
1788124544 28.89° C 70% 1021.4 hPa 0 mm - 264 W/m² -
1788124244 28.33° C 72% 1021.5 hPa 0 mm - 184 W/m² -
1788123939 27.78° C 71% 1021.5 hPa 0 mm - 157 W/m² -
1788123638 28.33° C 72% 1021.6 hPa 0 mm - 131 W/m² -
1788123336 27.78° C 72% 1021.6 hPa 0 mm - 117 W/m² -

* Rain latest hour (hover to see other rain measurements)
** Current wind speed in m/s (hover to see current wind gust speed)